Portada
Imágenes satélite Pronóstico 15 díasClimaPredicción Marítima Ciclones Rayo AeropuertosFAQ Noticias Acerca
El tiempo : Europa África América del Norte América del Sur Asia Australia-Oceanía Otros
Idiomas Contacto

Ciudad Del Este, Paraguay

Guarani

latitud: 25-27-20S, longitud: 054-50-37W, altitud: 257 m


METAR: SGES 240800Z 16004KT CAVOK 22/17 Q1011
TAF: SGES 240500Z 2406/2506 00000KT CAVOK TX34/2419Z TN19/2410Z BECMG 2415/2418 05015KT 9999 SCT030

Hora: 05:27 (08:27 UTC)

Observación

El informe se hizo hace 27 minutos, a las 08:00 UTC
Viento 4 kt del sur-sureste
Temperatura 22°C
Humedad 73%
Presión 1011 hPa
Visibilidad 10 km o más
sin nubes por debajo de 1500 m y sin presencia de cumulonimbus.

Cambiar las unidades

Pronóstico

El informe se hizo hace 3 horas y 27 minutos, a las 05:00 UTC
Pronóstico válido del 24 a las 06 UTC al 25 a las 06 UTC
Viento kt del norte
Visibilidad 10 km o más
sin nubes por debajo de 1500 m y sin presencia de cumulonimbus.
Evolucionando progresivamente
del 24 a las 15 UTC al 24 a las 18 UTC
Viento 15 kt del noreste
Visibilidad 10 km o más
Nubes dispersas a una altura de 3000 ft
La información que se ofrece en estas páginas está sujeta a una cláusula de exención de responsabilidad
El tiempo : Europa África América del Norte América del Sur Asia Australia-Oceanía Otros
Imágenes satélite Pronóstico 15 díasClimaPredicción Marítima Ciclones Rayo AeropuertosFAQ Idiomas Contacto Noticias Acerca